createdAt,value
2018-09-13T00:00:05.188Z,74.24
2018-09-13T00:00:16.950Z,74.10
2018-09-13T00:00:28.724Z,74.30
2018-09-13T00:00:40.492Z,72.86
2018-09-13T00:00:52.245Z,72.47
2018-09-13T00:01:04.023Z,72.73
2018-09-13T00:01:15.788Z,72.25
2018-09-13T00:01:27.558Z,72.33
2018-09-13T00:01:39.312Z,72.11
2018-09-13T00:01:51.083Z,72.20
2018-09-13T00:02:02.839Z,72.01
2018-09-13T00:02:14.585Z,72.24
2018-09-13T00:02:26.333Z,71.94
2018-09-13T00:02:38.094Z,72.25
2018-09-13T00:02:49.850Z,71.90
2018-09-13T00:03:01.630Z,72.63
2018-09-13T00:03:13.396Z,72.34
2018-09-13T00:03:25.309Z,72.48
2018-09-13T00:03:37.063Z,71.92
2018-09-13T00:03:48.829Z,72.31
2018-09-13T00:04:00.570Z,72.24
2018-09-13T00:04:12.325Z,72.20
2018-09-13T00:04:24.076Z,72.33
2018-09-13T00:04:35.832Z,71.94
2018-09-13T00:04:47.588Z,72.59
2018-09-13T00:04:59.351Z,72.38
2018-09-13T00:05:11.101Z,71.88
2018-09-13T00:05:22.838Z,72.19
2018-09-13T00:05:34.595Z,72.19
2018-09-13T00:05:46.358Z,72.40
2018-09-13T00:05:58.207Z,72.30
2018-09-13T00:06:09.896Z,72.48
2018-09-13T00:06:21.860Z,72.84
2018-09-13T00:06:33.632Z,72.23
2018-09-13T00:06:45.395Z,71.94
2018-09-13T00:06:57.151Z,71.92
2018-09-13T00:07:08.914Z,71.67
2018-09-13T00:07:20.741Z,72.29
2018-09-13T00:07:32.507Z,72.59
2018-09-13T00:07:44.255Z,72.03
2018-09-13T00:07:56.038Z,71.56
2018-09-13T00:08:07.783Z,71.88
2018-09-13T00:08:19.555Z,72.01
2018-09-13T00:08:31.341Z,72.06
2018-09-13T00:08:43.095Z,72.26
2018-09-13T00:08:54.866Z,72.32
2018-09-13T00:09:06.632Z,72.31
2018-09-13T00:09:18.379Z,72.41
2018-09-13T00:09:30.179Z,72.23
2018-09-13T00:09:41.928Z,71.99
2018-09-13T00:09:53.687Z,72.49
2018-09-13T00:10:05.444Z,71.78
2018-09-13T00:10:17.194Z,72.85
2018-09-13T00:10:28.953Z,71.81
2018-09-13T00:10:40.756Z,71.59
2018-09-13T00:10:52.495Z,71.71
2018-09-13T00:11:04.248Z,71.90
2018-09-13T00:11:16.008Z,72.02
2018-09-13T00:11:27.758Z,71.86
2018-09-13T00:11:39.531Z,71.69
2018-09-13T00:11:51.281Z,71.80
2018-09-13T00:12:03.157Z,71.71
2018-09-13T00:12:14.901Z,72.58
2018-09-13T00:12:26.642Z,72.68
2018-09-13T00:12:38.410Z,72.41
2018-09-13T00:12:50.164Z,72.32
2018-09-13T00:13:01.927Z,71.47
2018-09-13T00:13:13.675Z,72.32
2018-09-13T00:13:25.430Z,72.43
2018-09-13T00:13:37.174Z,72.37
2018-09-13T00:13:48.937Z,72.33
2018-09-13T00:14:00.686Z,72.07
2018-09-13T00:14:12.448Z,72.07
2018-09-13T00:14:24.204Z,72.43
2018-09-13T00:14:35.964Z,73.38
2018-09-13T00:14:47.726Z,74.03
2018-09-13T00:14:59.474Z,73.46
2018-09-13T00:15:11.228Z,74.40
2018-09-13T00:15:22.974Z,74.25
2018-09-13T00:15:34.720Z,73.89
2018-09-13T00:15:46.506Z,73.59
2018-09-13T00:15:58.256Z,73.77
2018-09-13T00:16:10.016Z,73.47
2018-09-13T00:16:21.763Z,72.93
2018-09-13T00:16:33.519Z,73.06
2018-09-13T00:16:45.274Z,72.86
2018-09-13T00:16:57.016Z,72.77
2018-09-13T00:17:08.791Z,72.51
2018-09-13T00:17:20.546Z,71.87
2018-09-13T00:17:32.298Z,72.39
2018-09-13T00:17:44.053Z,71.61
2018-09-13T00:17:55.797Z,71.76
2018-09-13T00:18:07.563Z,71.68
2018-09-13T00:18:19.306Z,71.82
2018-09-13T00:18:31.061Z,71.75
2018-09-13T00:18:42.851Z,72.10
2018-09-13T00:18:54.570Z,72.52
2018-09-13T00:19:06.351Z,72.25
2018-09-13T00:19:18.111Z,72.51
2018-09-13T00:19:29.867Z,72.05
2018-09-13T00:19:41.618Z,72.38
2018-09-13T00:19:53.370Z,71.81
2018-09-13T00:20:05.350Z,72.10
2018-09-13T00:20:17.097Z,71.59
2018-09-13T00:20:28.836Z,71.56
2018-09-13T00:20:40.600Z,72.11
2018-09-13T00:20:52.654Z,72.28
2018-09-13T00:21:04.403Z,72.07
2018-09-13T00:21:16.411Z,71.94
2018-09-13T00:21:28.166Z,72.08
2018-09-13T00:21:39.935Z,71.35
2018-09-13T00:21:51.685Z,72.29
2018-09-13T00:22:03.459Z,71.85
2018-09-13T00:22:15.238Z,71.58
2018-09-13T00:22:27.000Z,71.67
2018-09-13T00:22:38.745Z,71.55
2018-09-13T00:22:50.512Z,71.68
2018-09-13T00:23:02.292Z,72.03
2018-09-13T00:23:14.055Z,71.49
2018-09-13T00:23:25.819Z,71.79
2018-09-13T00:23:37.567Z,73.07
2018-09-13T00:23:49.320Z,71.87
2018-09-13T00:24:01.095Z,72.32
2018-09-13T00:24:12.833Z,72.55
2018-09-13T00:24:24.588Z,72.31
2018-09-13T00:24:36.351Z,72.28
2018-09-13T00:24:48.102Z,72.07
2018-09-13T00:24:59.857Z,72.47
2018-09-13T00:25:11.597Z,73.39
2018-09-13T00:25:23.346Z,73.87
2018-09-13T00:25:35.104Z,73.47
2018-09-13T00:25:46.881Z,73.28
2018-09-13T00:25:58.649Z,72.57
2018-09-13T00:26:10.399Z,72.68
2018-09-13T00:26:22.151Z,72.09
2018-09-13T00:26:33.910Z,72.61
2018-09-13T00:26:45.670Z,72.30
2018-09-13T00:26:57.431Z,71.44
2018-09-13T00:27:09.291Z,71.57
2018-09-13T00:27:21.038Z,72.25
2018-09-13T00:27:32.803Z,72.26
2018-09-13T00:27:44.553Z,72.42
2018-09-13T00:27:56.308Z,71.77
2018-09-13T00:28:08.068Z,71.88
2018-09-13T00:28:19.834Z,72.16
2018-09-13T00:28:31.583Z,72.68
2018-09-13T00:28:43.332Z,71.74
2018-09-13T00:28:55.090Z,72.13
2018-09-13T00:29:06.842Z,71.53
2018-09-13T00:29:18.721Z,71.52
2018-09-13T00:29:30.487Z,71.59
2018-09-13T00:29:42.238Z,71.95
2018-09-13T00:29:53.995Z,72.08
2018-09-13T00:30:05.746Z,72.39
2018-09-13T00:30:17.503Z,73.86
2018-09-13T00:30:29.256Z,74.02
2018-09-13T00:30:41.015Z,74.24
2018-09-13T00:30:52.776Z,74.11
2018-09-13T00:31:04.540Z,73.35
2018-09-13T00:31:16.301Z,73.06
2018-09-13T00:31:28.056Z,73.05
2018-09-13T00:31:39.821Z,73.43
2018-09-13T00:31:51.594Z,72.56
2018-09-13T00:32:03.346Z,72.25
2018-09-13T00:32:15.104Z,72.19
2018-09-13T00:32:26.847Z,72.09
2018-09-13T00:32:38.609Z,72.58
2018-09-13T00:32:50.371Z,72.71
2018-09-13T00:33:02.107Z,72.64
2018-09-13T00:33:13.878Z,72.34
2018-09-13T00:33:25.632Z,72.13
2018-09-13T00:33:37.423Z,72.40
2018-09-13T00:33:49.183Z,72.57
2018-09-13T00:34:00.983Z,72.04
2018-09-13T00:34:12.754Z,72.60
2018-09-13T00:34:24.543Z,72.56
2018-09-13T00:34:36.320Z,72.85
2018-09-13T00:34:48.096Z,72.19
2018-09-13T00:34:59.858Z,71.92
2018-09-13T00:35:11.615Z,72.03
2018-09-13T00:35:23.359Z,72.30
2018-09-13T00:35:35.108Z,72.26
2018-09-13T00:35:46.847Z,71.54
2018-09-13T00:35:58.593Z,71.67
2018-09-13T00:36:10.348Z,72.14
2018-09-13T00:36:22.099Z,72.04
2018-09-13T00:36:33.861Z,71.99
2018-09-13T00:36:45.625Z,72.94
2018-09-13T00:36:57.367Z,73.86
2018-09-13T00:37:09.125Z,72.34
2018-09-13T00:37:20.870Z,71.82
2018-09-13T00:37:32.621Z,71.72
2018-09-13T00:37:44.376Z,71.84
2018-09-13T00:37:56.138Z,71.97
2018-09-13T00:38:07.922Z,72.26
2018-09-13T00:38:19.674Z,72.12
2018-09-13T00:38:31.427Z,72.76
2018-09-13T00:38:43.250Z,73.32
2018-09-13T00:38:54.999Z,72.55
2018-09-13T00:39:06.916Z,73.53
2018-09-13T00:39:18.670Z,73.33
2018-09-13T00:39:30.415Z,73.04
2018-09-13T00:39:42.164Z,73.29
2018-09-13T00:39:53.921Z,72.09
2018-09-13T00:40:05.674Z,72.25
2018-09-13T00:40:17.445Z,72.24
2018-09-13T00:40:29.193Z,72.30
2018-09-13T00:40:40.941Z,72.36
2018-09-13T00:40:52.678Z,73.04
2018-09-13T00:41:04.419Z,72.56
2018-09-13T00:41:16.174Z,72.16
2018-09-13T00:41:27.924Z,72.95
2018-09-13T00:41:39.920Z,73.82
2018-09-13T00:41:51.698Z,73.41
2018-09-13T00:42:03.448Z,73.72
2018-09-13T00:42:15.203Z,74.50
2018-09-13T00:42:26.954Z,74.81
2018-09-13T00:42:38.724Z,73.98
2018-09-13T00:42:50.468Z,72.59
2018-09-13T00:43:02.219Z,72.15
2018-09-13T00:43:14.127Z,72.56
2018-09-13T00:43:25.887Z,72.56
2018-09-13T00:43:37.639Z,72.34
2018-09-13T00:43:49.379Z,72.36
2018-09-13T00:44:01.218Z,73.61
2018-09-13T00:44:12.954Z,73.74
2018-09-13T00:44:24.715Z,72.84
2018-09-13T00:44:36.471Z,73.16
2018-09-13T00:44:48.225Z,72.10
2018-09-13T00:44:59.984Z,72.00
2018-09-13T00:45:11.723Z,72.65
2018-09-13T00:45:23.487Z,72.06
2018-09-13T00:45:35.233Z,71.69
2018-09-13T00:45:46.975Z,72.25
2018-09-13T00:45:58.714Z,71.89
2018-09-13T00:46:10.470Z,73.36
2018-09-13T00:46:22.215Z,73.91
2018-09-13T00:46:34.326Z,73.95
2018-09-13T00:46:46.092Z,73.68
2018-09-13T00:46:57.877Z,73.18
2018-09-13T00:47:13.324Z,73.47
2018-09-13T00:47:25.072Z,72.94
2018-09-13T00:47:41.089Z,71.98
2018-09-13T00:47:52.831Z,71.77
2018-09-13T00:48:04.576Z,71.88
2018-09-13T00:48:16.341Z,71.74
2018-09-13T00:48:28.094Z,72.99
2018-09-13T00:48:39.846Z,73.37
2018-09-13T00:48:51.650Z,73.76
2018-09-13T00:49:03.637Z,72.57
2018-09-13T00:49:15.398Z,72.99
2018-09-13T00:49:27.152Z,73.26
2018-09-13T00:49:38.908Z,73.38
2018-09-13T00:49:50.661Z,72.08
2018-09-13T00:50:02.420Z,72.26
2018-09-13T00:50:14.776Z,72.10
2018-09-13T00:50:26.519Z,71.72
2018-09-13T00:50:38.272Z,71.85
2018-09-13T00:50:50.022Z,71.77
2018-09-13T00:51:01.773Z,71.89
2018-09-13T00:51:13.670Z,72.82
2018-09-13T00:51:25.428Z,73.44
2018-09-13T00:51:37.186Z,72.92
2018-09-13T00:51:48.939Z,72.12
2018-09-13T00:52:00.720Z,71.39
2018-09-13T00:52:12.476Z,71.57
2018-09-13T00:52:24.227Z,73.06
2018-09-13T00:52:35.988Z,72.96
2018-09-13T00:52:47.734Z,73.61
2018-09-13T00:52:59.495Z,73.19
2018-09-13T00:53:11.255Z,73.32
2018-09-13T00:53:23.022Z,72.61
2018-09-13T00:53:34.765Z,72.07
2018-09-13T00:53:46.519Z,72.28
2018-09-13T00:53:58.265Z,71.95
2018-09-13T00:54:10.031Z,71.90
2018-09-13T00:54:21.861Z,71.79
2018-09-13T00:54:33.598Z,71.46
2018-09-13T00:54:45.360Z,71.83
2018-09-13T00:54:57.101Z,71.76
2018-09-13T00:55:08.886Z,71.84
2018-09-13T00:55:20.636Z,71.29
2018-09-13T00:55:32.381Z,71.60
2018-09-13T00:55:44.126Z,72.04
2018-09-13T00:55:55.888Z,71.61
2018-09-13T00:56:07.646Z,71.69
2018-09-13T00:56:19.399Z,71.86
2018-09-13T00:56:31.159Z,72.11
2018-09-13T00:56:42.926Z,71.21
2018-09-13T00:56:54.695Z,72.05
2018-09-13T00:57:06.626Z,71.39
2018-09-13T00:57:18.373Z,71.78
2018-09-13T00:57:30.124Z,72.10
2018-09-13T00:57:41.875Z,72.49
2018-09-13T00:57:53.632Z,72.70
2018-09-13T00:58:05.376Z,72.49
2018-09-13T00:58:17.227Z,73.06
2018-09-13T00:58:28.992Z,73.04
2018-09-13T00:58:40.768Z,73.31
2018-09-13T00:58:52.769Z,72.90
2018-09-13T00:59:04.542Z,72.47
2018-09-13T00:59:16.316Z,71.87
2018-09-13T00:59:28.128Z,72.24
2018-09-13T00:59:39.880Z,71.62
2018-09-13T00:59:51.662Z,71.84
2018-09-13T01:00:03.414Z,72.26
2018-09-13T01:00:15.170Z,71.98
2018-09-13T01:00:26.919Z,71.37
2018-09-13T01:00:38.684Z,72.48
2018-09-13T01:00:50.445Z,71.89
2018-09-13T01:01:02.207Z,72.86
2018-09-13T01:01:13.974Z,73.27
2018-09-13T01:01:25.727Z,72.25
2018-09-13T01:01:37.482Z,72.55
2018-09-13T01:01:49.239Z,71.41
2018-09-13T01:02:01.003Z,71.89
2018-09-13T01:02:12.752Z,71.55
2018-09-13T01:02:24.513Z,71.62
2018-09-13T01:02:36.564Z,71.94
2018-09-13T01:02:48.304Z,71.10
2018-09-13T01:03:00.059Z,71.89
2018-09-13T01:03:11.816Z,71.41
2018-09-13T01:03:23.567Z,71.44
2018-09-13T01:03:35.318Z,71.07
2018-09-13T01:03:47.109Z,71.32
2018-09-13T01:03:58.864Z,71.59
2018-09-13T01:04:10.626Z,71.84
2018-09-13T01:04:22.730Z,71.68
2018-09-13T01:04:34.501Z,71.45
2018-09-13T01:04:46.258Z,71.13
2018-09-13T01:04:58.019Z,71.70
2018-09-13T01:05:09.779Z,71.66
2018-09-13T01:05:21.527Z,71.41
2018-09-13T01:05:33.286Z,71.88
2018-09-13T01:05:45.047Z,71.31
2018-09-13T01:05:56.809Z,71.99
2018-09-13T01:06:08.569Z,72.13
2018-09-13T01:06:20.740Z,72.63
2018-09-13T01:06:32.492Z,72.32
2018-09-13T01:06:44.237Z,71.50
2018-09-13T01:06:56.005Z,71.35
2018-09-13T01:07:07.760Z,71.51
2018-09-13T01:07:19.521Z,71.18
2018-09-13T01:07:31.481Z,71.89
2018-09-13T01:07:43.248Z,71.55
2018-09-13T01:07:54.998Z,71.68
2018-09-13T01:08:06.764Z,71.53
2018-09-13T01:08:18.706Z,71.69
2018-09-13T01:08:30.482Z,72.17
2018-09-13T01:08:42.361Z,72.16
2018-09-13T01:08:54.108Z,72.61
2018-09-13T01:09:05.850Z,71.81
2018-09-13T01:09:17.603Z,71.75
2018-09-13T01:09:29.347Z,71.86
2018-09-13T01:09:41.096Z,71.38
2018-09-13T01:09:53.840Z,71.70
2018-09-13T01:10:05.583Z,71.53
2018-09-13T01:10:17.318Z,72.33
2018-09-13T01:10:29.077Z,71.70
2018-09-13T01:10:40.815Z,72.44
2018-09-13T01:10:52.574Z,73.31
2018-09-13T01:11:04.322Z,73.01
2018-09-13T01:11:16.064Z,72.88
2018-09-13T01:11:27.809Z,72.20
2018-09-13T01:11:39.576Z,71.82
2018-09-13T01:11:51.331Z,71.71
2018-09-13T01:12:03.096Z,71.79
2018-09-13T01:12:14.859Z,72.04
2018-09-13T01:12:26.599Z,72.18
2018-09-13T01:12:38.347Z,72.99
2018-09-13T01:12:50.101Z,72.87
2018-09-13T01:13:01.887Z,72.64
2018-09-13T01:13:13.651Z,73.05
2018-09-13T01:13:25.425Z,72.28
2018-09-13T01:13:37.235Z,72.41
2018-09-13T01:13:49.013Z,71.82
2018-09-13T01:14:00.792Z,71.66
2018-09-13T01:14:12.557Z,72.02
2018-09-13T01:14:24.318Z,72.09
2018-09-13T01:14:36.078Z,71.79
2018-09-13T01:14:47.830Z,72.32
2018-09-13T01:14:59.599Z,72.21
2018-09-13T01:15:11.351Z,72.18
2018-09-13T01:15:23.115Z,71.78
2018-09-13T01:15:34.863Z,71.67
2018-09-13T01:15:46.625Z,71.80
2018-09-13T01:15:58.384Z,72.09
2018-09-13T01:16:10.160Z,71.65
2018-09-13T01:16:21.911Z,71.77
2018-09-13T01:16:33.696Z,71.41
2018-09-13T01:16:45.450Z,71.76
2018-09-13T01:16:57.245Z,71.51
2018-09-13T01:17:09.000Z,71.22
2018-09-13T01:17:20.763Z,72.03
2018-09-13T01:17:32.525Z,71.60
2018-09-13T01:17:44.287Z,71.94
2018-09-13T01:17:56.084Z,71.66
2018-09-13T01:18:07.848Z,71.83
2018-09-13T01:18:19.617Z,71.28
2018-09-13T01:18:31.386Z,71.71
2018-09-13T01:18:43.147Z,72.19
2018-09-13T01:18:54.901Z,72.36
2018-09-13T01:19:06.664Z,72.79
2018-09-13T01:19:18.427Z,73.14
2018-09-13T01:19:30.171Z,73.20
2018-09-13T01:19:41.931Z,72.95
2018-09-13T01:19:53.671Z,71.97
2018-09-13T01:20:05.429Z,72.16
2018-09-13T01:20:17.182Z,72.20
2018-09-13T01:20:28.926Z,72.18
2018-09-13T01:20:40.894Z,71.95
2018-09-13T01:20:52.664Z,72.25
2018-09-13T01:21:04.417Z,72.19
2018-09-13T01:21:16.168Z,71.51
2018-09-13T01:21:27.918Z,72.06
2018-09-13T01:21:39.691Z,71.62
2018-09-13T01:21:51.465Z,72.40
2018-09-13T01:22:03.215Z,71.90
2018-09-13T01:22:14.970Z,71.87
2018-09-13T01:22:26.727Z,71.28
2018-09-13T01:22:38.492Z,71.83
2018-09-13T01:22:50.246Z,72.00
2018-09-13T01:23:02.176Z,72.25
2018-09-13T01:23:13.964Z,71.91
2018-09-13T01:23:25.734Z,72.12
2018-09-13T01:23:37.486Z,72.15
2018-09-13T01:23:49.251Z,71.60
2018-09-13T01:24:01.047Z,71.29
2018-09-13T01:24:12.791Z,71.65
2018-09-13T01:24:24.639Z,71.78
2018-09-13T01:24:36.379Z,71.40
2018-09-13T01:24:49.217Z,72.05
2018-09-13T01:25:00.983Z,71.08
2018-09-13T01:25:12.743Z,71.14
2018-09-13T01:25:24.510Z,71.71
2018-09-13T01:25:36.268Z,71.64
2018-09-13T01:25:48.037Z,71.30
2018-09-13T01:25:59.980Z,71.33
2018-09-13T01:26:11.740Z,71.67
2018-09-13T01:26:23.493Z,71.77
2018-09-13T01:26:35.280Z,71.40
2018-09-13T01:26:47.031Z,71.27
2018-09-13T01:26:58.770Z,71.36
2018-09-13T01:27:10.525Z,71.30
2018-09-13T01:27:22.267Z,71.26
2018-09-13T01:27:34.037Z,71.97
2018-09-13T01:27:45.792Z,71.37
2018-09-13T01:27:57.544Z,71.34
2018-09-13T01:28:09.296Z,71.86
2018-09-13T01:28:21.055Z,71.91
2018-09-13T01:28:32.825Z,71.56
2018-09-13T01:28:44.583Z,71.02
2018-09-13T01:28:56.347Z,71.87
2018-09-13T01:29:08.107Z,71.36
2018-09-13T01:29:19.863Z,71.42
2018-09-13T01:29:31.623Z,71.39
2018-09-13T01:29:43.380Z,71.58
2018-09-13T01:29:55.484Z,71.58
2018-09-13T01:30:07.258Z,70.97
2018-09-13T01:30:19.025Z,71.72
2018-09-13T01:30:30.799Z,71.69
2018-09-13T01:30:42.553Z,71.51
2018-09-13T01:30:54.314Z,71.73
2018-09-13T01:31:06.063Z,71.30
2018-09-13T01:31:17.811Z,71.11
2018-09-13T01:31:29.567Z,71.57
2018-09-13T01:31:41.320Z,71.20
2018-09-13T01:31:53.062Z,71.84
2018-09-13T01:32:04.818Z,70.95
2018-09-13T01:32:16.571Z,71.66
2018-09-13T01:32:28.325Z,71.77
2018-09-13T01:32:40.097Z,71.40
2018-09-13T01:32:51.868Z,71.01
2018-09-13T01:33:03.835Z,71.25
2018-09-13T01:33:15.578Z,71.80
2018-09-13T01:33:27.336Z,71.65
2018-09-13T01:33:39.113Z,71.71
2018-09-13T01:33:50.855Z,71.18
2018-09-13T01:34:02.617Z,71.13
2018-09-13T01:34:14.383Z,71.92
2018-09-13T01:34:26.136Z,72.51
2018-09-13T01:34:37.883Z,71.70
2018-09-13T01:34:49.635Z,71.45
2018-09-13T01:35:01.389Z,71.55
2018-09-13T01:35:13.129Z,71.14
2018-09-13T01:35:24.879Z,71.54
2018-09-13T01:35:36.630Z,71.33
2018-09-13T01:35:48.386Z,71.74
2018-09-13T01:36:00.140Z,71.62
2018-09-13T01:36:11.886Z,71.63
2018-09-13T01:36:23.635Z,71.73
2018-09-13T01:36:35.388Z,71.11
2018-09-13T01:36:47.147Z,70.98
2018-09-13T01:36:58.920Z,71.34
2018-09-13T01:37:10.675Z,71.36
2018-09-13T01:37:22.426Z,71.61
2018-09-13T01:37:34.159Z,70.98
2018-09-13T01:37:45.909Z,71.52
2018-09-13T01:37:57.648Z,71.28
2018-09-13T01:38:09.386Z,71.62
2018-09-13T01:38:21.133Z,70.96
2018-09-13T01:38:32.927Z,71.02
2018-09-13T01:38:44.678Z,71.84
2018-09-13T01:38:56.417Z,71.02
2018-09-13T01:39:08.464Z,70.92
2018-09-13T01:39:20.210Z,71.62
2018-09-13T01:39:31.960Z,71.12
2018-09-13T01:39:43.731Z,71.20
2018-09-13T01:39:55.489Z,71.69
2018-09-13T01:40:07.237Z,71.62
2018-09-13T01:40:18.985Z,71.25
2018-09-13T01:40:30.730Z,71.79
2018-09-13T01:40:42.478Z,71.18
2018-09-13T01:40:54.279Z,71.14
2018-09-13T01:41:06.014Z,70.98
2018-09-13T01:41:17.760Z,72.01
2018-09-13T01:41:29.510Z,71.37
2018-09-13T01:41:41.277Z,71.82
2018-09-13T01:41:53.024Z,71.26
2018-09-13T01:42:04.770Z,71.65
2018-09-13T01:42:16.517Z,71.88
2018-09-13T01:42:28.271Z,71.32
2018-09-13T01:42:40.026Z,71.71
2018-09-13T01:42:51.785Z,70.93
2018-09-13T01:43:03.547Z,72.02
2018-09-13T01:43:15.311Z,71.13
2018-09-13T01:43:27.071Z,70.96
2018-09-13T01:43:38.835Z,71.12
2018-09-13T01:43:50.591Z,71.17
2018-09-13T01:44:02.333Z,71.00
2018-09-13T01:44:14.067Z,71.90
2018-09-13T01:44:25.825Z,71.38
2018-09-13T01:44:37.579Z,72.35
2018-09-13T01:44:49.344Z,71.07
2018-09-13T01:45:01.147Z,71.51
2018-09-13T01:45:12.902Z,72.01
2018-09-13T01:45:24.655Z,71.55
2018-09-13T01:45:36.403Z,71.55
2018-09-13T01:45:48.163Z,71.35
2018-09-13T01:45:59.894Z,71.40
2018-09-13T01:46:11.648Z,71.31
2018-09-13T01:46:23.391Z,71.70
2018-09-13T01:46:35.226Z,72.57
2018-09-13T01:46:46.974Z,73.26
2018-09-13T01:46:58.722Z,72.90
2018-09-13T01:47:10.470Z,73.38
2018-09-13T01:47:22.214Z,73.17
2018-09-13T01:47:33.983Z,72.82
2018-09-13T01:47:45.733Z,73.12
2018-09-13T01:47:57.483Z,72.35
2018-09-13T01:48:09.232Z,72.02
2018-09-13T01:48:20.987Z,71.76
2018-09-13T01:48:32.746Z,71.54
2018-09-13T01:48:44.507Z,71.77
2018-09-13T01:48:56.251Z,71.13
2018-09-13T01:49:08.000Z,71.09
2018-09-13T01:49:19.742Z,70.88
2018-09-13T01:49:31.500Z,71.40
2018-09-13T01:49:43.245Z,71.57
2018-09-13T01:49:54.992Z,71.79
2018-09-13T01:50:06.742Z,72.40
2018-09-13T01:50:18.500Z,71.64
2018-09-13T01:50:30.267Z,71.34
2018-09-13T01:50:42.024Z,71.52
2018-09-13T01:50:53.785Z,71.36
2018-09-13T01:51:05.541Z,71.23
2018-09-13T01:51:17.277Z,70.95
2018-09-13T01:51:29.034Z,71.68
2018-09-13T01:51:40.787Z,71.77
2018-09-13T01:51:52.541Z,71.67
2018-09-13T01:52:04.294Z,71.70
2018-09-13T01:52:16.039Z,71.39
2018-09-13T01:52:27.796Z,71.65
2018-09-13T01:52:39.552Z,71.45
2018-09-13T01:52:51.319Z,70.92
2018-09-13T01:53:03.116Z,70.96
2018-09-13T01:53:14.865Z,71.15
2018-09-13T01:53:26.624Z,70.85
2018-09-13T01:53:38.495Z,70.97
2018-09-13T01:53:50.234Z,71.43
2018-09-13T01:54:02.034Z,71.43
2018-09-13T01:54:13.789Z,71.75
2018-09-13T01:54:25.565Z,71.00
2018-09-13T01:54:37.963Z,71.25
2018-09-13T01:54:49.719Z,71.08
2018-09-13T01:55:01.473Z,71.46
2018-09-13T01:55:13.227Z,71.37
2018-09-13T01:55:24.987Z,71.36
2018-09-13T01:55:36.746Z,71.04
2018-09-13T01:55:48.507Z,70.94
2018-09-13T01:56:00.255Z,71.42
2018-09-13T01:56:12.021Z,71.03
2018-09-13T01:56:23.789Z,71.43
2018-09-13T01:56:35.612Z,71.34
2018-09-13T01:56:47.354Z,71.39
2018-09-13T01:56:59.104Z,71.34
2018-09-13T01:57:10.853Z,71.07
2018-09-13T01:57:22.606Z,71.34
2018-09-13T01:57:34.367Z,70.86
2018-09-13T01:57:46.106Z,71.25
2018-09-13T01:57:57.891Z,71.22
2018-09-13T01:58:09.666Z,71.21
2018-09-13T01:58:21.419Z,71.24
2018-09-13T01:58:33.180Z,71.03
2018-09-13T01:58:44.931Z,71.22
2018-09-13T01:58:56.683Z,71.62
2018-09-13T01:59:08.456Z,71.51
2018-09-13T01:59:20.206Z,72.13
2018-09-13T01:59:31.946Z,72.20
2018-09-13T01:59:43.707Z,71.98
2018-09-13T01:59:55.461Z,71.98
2018-09-13T02:00:07.219Z,71.24
2018-09-13T02:00:18.975Z,71.06
2018-09-13T02:00:30.724Z,71.32
2018-09-13T02:00:42.482Z,71.97
2018-09-13T02:00:54.738Z,71.71
2018-09-13T02:01:06.447Z,71.53
2018-09-13T02:01:18.182Z,71.40
2018-09-13T02:01:29.941Z,70.77
2018-09-13T02:01:41.699Z,71.08
2018-09-13T02:01:53.567Z,70.65
2018-09-13T02:02:05.306Z,71.29
2018-09-13T02:02:17.053Z,71.18
2018-09-13T02:02:28.813Z,71.21
2018-09-13T02:02:40.560Z,70.87
2018-09-13T02:02:52.349Z,71.82
2018-09-13T02:03:04.225Z,71.65
2018-09-13T02:03:15.970Z,71.12
2018-09-13T02:03:27.737Z,71.20
2018-09-13T02:03:39.510Z,71.27
2018-09-13T02:03:51.279Z,71.48
2018-09-13T02:04:03.324Z,71.74
2018-09-13T02:04:15.063Z,71.40
2018-09-13T02:04:26.806Z,71.89
2018-09-13T02:04:38.545Z,70.92
2018-09-13T02:04:50.295Z,71.12
2018-09-13T02:05:02.048Z,71.01
2018-09-13T02:05:13.807Z,71.48
2018-09-13T02:05:25.741Z,70.87
2018-09-13T02:05:37.491Z,71.30
2018-09-13T02:05:49.341Z,71.34
2018-09-13T02:06:01.124Z,71.05
2018-09-13T02:06:12.937Z,72.02
2018-09-13T02:06:24.700Z,72.55
2018-09-13T02:06:36.447Z,72.30
2018-09-13T02:06:48.193Z,73.25
2018-09-13T02:06:59.950Z,72.34
2018-09-13T02:07:11.693Z,71.98
2018-09-13T02:07:23.448Z,72.76
2018-09-13T02:07:35.196Z,71.69
2018-09-13T02:07:46.957Z,71.95
2018-09-13T02:07:58.720Z,71.68
2018-09-13T02:08:10.464Z,71.25
2018-09-13T02:08:22.218Z,72.21
2018-09-13T02:08:33.972Z,71.00
2018-09-13T02:08:45.762Z,71.14
2018-09-13T02:08:57.521Z,71.51
2018-09-13T02:09:10.462Z,70.83
2018-09-13T02:09:22.209Z,71.30
2018-09-13T02:09:33.965Z,71.09
2018-09-13T02:09:45.719Z,71.13
2018-09-13T02:09:57.470Z,71.44
2018-09-13T02:10:09.236Z,71.27
2018-09-13T02:10:21.010Z,71.70
2018-09-13T02:10:32.778Z,71.54
2018-09-13T02:10:44.537Z,70.97
2018-09-13T02:10:56.292Z,71.01
2018-09-13T02:11:08.163Z,71.05
2018-09-13T02:11:19.916Z,71.11
2018-09-13T02:11:31.664Z,71.26
2018-09-13T02:11:43.412Z,71.32
2018-09-13T02:11:55.159Z,71.08
2018-09-13T02:12:06.913Z,71.90
2018-09-13T02:12:18.660Z,71.05
2018-09-13T02:12:30.447Z,70.85
2018-09-13T02:12:42.212Z,70.97
2018-09-13T02:12:53.966Z,71.32
2018-09-13T02:13:05.710Z,71.28
2018-09-13T02:13:17.471Z,70.87
2018-09-13T02:13:29.218Z,71.47
2018-09-13T02:13:40.963Z,70.76
2018-09-13T02:13:52.722Z,71.24
2018-09-13T02:14:04.475Z,70.75
2018-09-13T02:14:16.222Z,71.74
2018-09-13T02:14:27.977Z,71.11
2018-09-13T02:14:39.724Z,71.62
2018-09-13T02:14:51.480Z,71.79
2018-09-13T02:15:03.254Z,71.56
2018-09-13T02:15:15.018Z,71.23
2018-09-13T02:15:26.765Z,71.18
2018-09-13T02:15:38.572Z,71.32
2018-09-13T02:15:50.315Z,71.65
2018-09-13T02:16:02.174Z,70.73
2018-09-13T02:16:14.044Z,70.85
2018-09-13T02:16:25.791Z,71.62
2018-09-13T02:16:37.533Z,71.33
2018-09-13T02:16:49.277Z,71.59
2018-09-13T02:17:01.141Z,71.40
2018-09-13T02:17:12.902Z,70.65
2018-09-13T02:17:24.796Z,71.55
2018-09-13T02:17:36.555Z,71.24
2018-09-13T02:17:48.313Z,70.99
2018-09-13T02:18:00.059Z,71.14
2018-09-13T02:18:11.828Z,70.94
2018-09-13T02:18:23.580Z,70.98
2018-09-13T02:18:35.345Z,70.67
2018-09-13T02:18:47.103Z,71.00
2018-09-13T02:18:58.863Z,71.26
2018-09-13T02:19:10.635Z,71.35
2018-09-13T02:19:22.403Z,70.85
2018-09-13T02:19:34.184Z,71.05
2018-09-13T02:19:45.956Z,71.38
2018-09-13T02:19:57.700Z,71.21
2018-09-13T02:20:09.681Z,70.98
2018-09-13T02:20:22.061Z,70.94
2018-09-13T02:20:33.821Z,71.26
2018-09-13T02:20:45.558Z,70.70
2018-09-13T02:20:57.497Z,70.92
2018-09-13T02:21:09.267Z,71.44
2018-09-13T02:21:21.024Z,71.16
2018-09-13T02:21:32.779Z,71.09
2018-09-13T02:21:44.527Z,70.86
2018-09-13T02:21:56.285Z,71.21
2018-09-13T02:22:08.032Z,71.29
2018-09-13T02:22:19.800Z,71.49
2018-09-13T02:22:31.543Z,71.14
2018-09-13T02:22:43.312Z,71.46
2018-09-13T02:22:55.064Z,71.05
2018-09-13T02:23:06.830Z,71.09
2018-09-13T02:23:18.612Z,71.27
2018-09-13T02:23:30.394Z,70.68
2018-09-13T02:23:42.154Z,71.14
2018-09-13T02:23:53.933Z,71.36
2018-09-13T02:24:05.715Z,70.79
2018-09-13T02:24:17.480Z,71.54
2018-09-13T02:24:29.234Z,71.21
2018-09-13T02:24:40.980Z,71.42
2018-09-13T02:24:52.722Z,71.03
2018-09-13T02:25:04.477Z,70.98
2018-09-13T02:25:16.238Z,70.98
2018-09-13T02:25:27.994Z,70.80
2018-09-13T02:25:39.755Z,70.73
2018-09-13T02:25:51.515Z,71.31
2018-09-13T02:26:03.262Z,71.74
2018-09-13T02:26:15.029Z,71.22
2018-09-13T02:26:26.793Z,70.63
2018-09-13T02:26:38.531Z,71.10
2018-09-13T02:26:50.295Z,70.65
2018-09-13T02:27:02.059Z,71.21
2018-09-13T02:27:13.825Z,70.77
2018-09-13T02:27:25.783Z,70.72
2018-09-13T02:27:37.545Z,71.16
2018-09-13T02:27:49.295Z,70.79
2018-09-13T02:28:01.396Z,71.37
2018-09-13T02:28:13.166Z,70.91
2018-09-13T02:28:24.952Z,71.02
2018-09-13T02:28:36.701Z,71.42
2018-09-13T02:28:48.462Z,70.59
2018-09-13T02:29:00.228Z,71.30
2018-09-13T02:29:11.965Z,70.81
2018-09-13T02:29:23.731Z,70.63
2018-09-13T02:29:35.474Z,71.26
2018-09-13T02:29:47.233Z,70.82
2018-09-13T02:29:58.981Z,70.82
2018-09-13T02:30:10.732Z,70.79
2018-09-13T02:30:22.498Z,70.83
2018-09-13T02:30:34.269Z,71.41
2018-09-13T02:30:46.025Z,71.39
2018-09-13T02:30:57.775Z,71.39
2018-09-13T02:31:09.528Z,70.58
2018-09-13T02:31:21.279Z,71.49
2018-09-13T02:31:33.028Z,71.43
2018-09-13T02:31:44.782Z,71.15